sensor_id;sensor_type;location;lat;lon;timestamp;pressure;altitude;pressure_sealevel;temperature;humidity
54994;BME280;40891;47.242;8.648;2022-07-18T00:00:37;96992.72;;;21.99;52.32
54994;BME280;40891;47.242;8.648;2022-07-18T00:03:03;96990.13;;;22.01;53.21
54994;BME280;40891;47.242;8.648;2022-07-18T00:05:28;96998.13;;;21.97;52.73
54994;BME280;40891;47.242;8.648;2022-07-18T00:07:53;96994.25;;;21.89;53.52
54994;BME280;40891;47.242;8.648;2022-07-18T00:10:19;96992.69;;;21.83;54.29
54994;BME280;40891;47.242;8.648;2022-07-18T00:12:44;96982.41;;;21.85;53.26
54994;BME280;40891;47.242;8.648;2022-07-18T00:15:10;96992.16;;;21.79;53.23
54994;BME280;40891;47.242;8.648;2022-07-18T00:17:36;96987.00;;;21.66;54.12
54994;BME280;40891;47.242;8.648;2022-07-18T00:20:05;96998.56;;;21.62;54.33
54994;BME280;40891;47.242;8.648;2022-07-18T00:22:31;96993.69;;;21.57;54.06
54994;BME280;40891;47.242;8.648;2022-07-18T00:24:56;96991.84;;;21.54;53.42
54994;BME280;40891;47.242;8.648;2022-07-18T00:27:21;96980.28;;;21.58;52.81
54994;BME280;40891;47.242;8.648;2022-07-18T00:29:47;96991.09;;;21.59;53.32
54994;BME280;40891;47.242;8.648;2022-07-18T00:32:12;96982.09;;;21.66;53.68
54994;BME280;40891;47.242;8.648;2022-07-18T00:34:37;96983.09;;;21.52;53.87
54994;BME280;40891;47.242;8.648;2022-07-18T00:37:04;96983.09;;;21.47;53.45
54994;BME280;40891;47.242;8.648;2022-07-18T00:39:29;96977.91;;;21.34;53.94
54994;BME280;40891;47.242;8.648;2022-07-18T00:41:54;96977.13;;;21.28;54.60
54994;BME280;40891;47.242;8.648;2022-07-18T00:44:22;96973.22;;;21.15;54.79
54994;BME280;40891;47.242;8.648;2022-07-18T00:46:50;96980.88;;;21.03;55.80
54994;BME280;40891;47.242;8.648;2022-07-18T00:49:16;96984.44;;;20.98;56.02
54994;BME280;40891;47.242;8.648;2022-07-18T00:51:41;96978.03;;;21.03;56.08
54994;BME280;40891;47.242;8.648;2022-07-18T00:54:07;96975.16;;;20.92;56.82
54994;BME280;40891;47.242;8.648;2022-07-18T00:56:32;96980.53;;;20.84;57.12
54994;BME280;40891;47.242;8.648;2022-07-18T00:58:58;96982.03;;;20.80;57.05
54994;BME280;40891;47.242;8.648;2022-07-18T01:01:23;96982.88;;;20.91;56.88
54994;BME280;40891;47.242;8.648;2022-07-18T01:04:08;96985.59;;;20.69;57.87
54994;BME280;40891;47.242;8.648;2022-07-18T01:06:33;96978.38;;;20.68;57.88
54994;BME280;40891;47.242;8.648;2022-07-18T01:08:58;96978.88;;;20.67;57.85
54994;BME280;40891;47.242;8.648;2022-07-18T01:11:24;96980.97;;;20.72;57.75
54994;BME280;40891;47.242;8.648;2022-07-18T01:13:50;96981.19;;;20.68;57.87
54994;BME280;40891;47.242;8.648;2022-07-18T01:16:17;96980.97;;;20.72;57.85
54994;BME280;40891;47.242;8.648;2022-07-18T01:18:47;96975.78;;;20.65;58.26
54994;BME280;40891;47.242;8.648;2022-07-18T01:21:13;96982.19;;;20.60;58.48
54994;BME280;40891;47.242;8.648;2022-07-18T01:23:39;96980.38;;;20.57;58.63
54994;BME280;40891;47.242;8.648;2022-07-18T01:26:05;96978.84;;;20.56;59.22
54994;BME280;40891;47.242;8.648;2022-07-18T01:28:31;96982.19;;;20.60;59.27
54994;BME280;40891;47.242;8.648;2022-07-18T01:30:56;96980.63;;;20.53;59.56
54994;BME280;40891;47.242;8.648;2022-07-18T01:33:21;96983.41;;;20.48;59.98
54994;BME280;40891;47.242;8.648;2022-07-18T01:35:47;96990.59;;;20.49;60.10
54994;BME280;40891;47.242;8.648;2022-07-18T01:38:12;96983.66;;;20.50;60.32
54994;BME280;40891;47.242;8.648;2022-07-18T01:40:38;96984.97;;;20.49;60.88
54994;BME280;40891;47.242;8.648;2022-07-18T01:43:03;96983.44;;;20.53;61.08
54994;BME280;40891;47.242;8.648;2022-07-18T01:45:29;96990.44;;;20.63;61.42
54994;BME280;40891;47.242;8.648;2022-07-18T01:47:54;96992.19;;;20.55;62.44
54994;BME280;40891;47.242;8.648;2022-07-18T01:50:20;96989.88;;;20.54;62.80
54994;BME280;40891;47.242;8.648;2022-07-18T01:52:45;96994.19;;;20.49;63.26
54994;BME280;40891;47.242;8.648;2022-07-18T01:55:11;97005.47;;;20.44;63.88
54994;BME280;40891;47.242;8.648;2022-07-18T01:57:37;96996.16;;;20.38;63.56
54994;BME280;40891;47.242;8.648;2022-07-18T02:00:08;96999.78;;;20.38;63.25
54994;BME280;40891;47.242;8.648;2022-07-18T02:02:34;96997.41;;;20.31;62.98
54994;BME280;40891;47.242;8.648;2022-07-18T02:04:59;96993.28;;;20.26;62.42
54994;BME280;40891;47.242;8.648;2022-07-18T02:07:28;96997.78;;;20.18;63.56
54994;BME280;40891;47.242;8.648;2022-07-18T02:09:54;97000.34;;;20.16;62.83
54994;BME280;40891;47.242;8.648;2022-07-18T02:12:20;96994.28;;;20.23;63.00
54994;BME280;40891;47.242;8.648;2022-07-18T02:14:46;96986.31;;;20.22;62.91
54994;BME280;40891;47.242;8.648;2022-07-18T02:17:11;96998.19;;;20.31;63.66
54994;BME280;40891;47.242;8.648;2022-07-18T02:19:36;96998.19;;;20.31;63.97
54994;BME280;40891;47.242;8.648;2022-07-18T02:22:03;96996.16;;;20.38;63.72
54994;BME280;40891;47.242;8.648;2022-07-18T02:24:28;96993.53;;;20.23;64.03
54994;BME280;40891;47.242;8.648;2022-07-18T02:26:54;96992.66;;;20.17;63.67
54994;BME280;40891;47.242;8.648;2022-07-18T02:29:19;96997.50;;;20.11;64.21
54994;BME280;40891;47.242;8.648;2022-07-18T02:31:44;96998.44;;;20.02;64.37
54994;BME280;40891;47.242;8.648;2022-07-18T02:34:10;96989.16;;;19.96;63.75
54994;BME280;40891;47.242;8.648;2022-07-18T02:36:39;96996.78;;;19.90;63.36
54994;BME280;40891;47.242;8.648;2022-07-18T02:39:07;96989.09;;;19.91;63.10
54994;BME280;40891;47.242;8.648;2022-07-18T02:41:33;96989.03;;;19.85;63.38
54994;BME280;40891;47.242;8.648;2022-07-18T02:43:59;96994.59;;;19.74;64.13
54994;BME280;40891;47.242;8.648;2022-07-18T02:46:24;96994.84;;;19.71;64.49
54994;BME280;40891;47.242;8.648;2022-07-18T02:48:50;97001.22;;;19.71;64.67
54994;BME280;40891;47.242;8.648;2022-07-18T02:51:15;96996.38;;;19.72;64.63
54994;BME280;40891;47.242;8.648;2022-07-18T02:53:41;97004.06;;;19.71;64.69
54994;BME280;40891;47.242;8.648;2022-07-18T02:56:06;96999.44;;;19.68;64.73
54994;BME280;40891;47.242;8.648;2022-07-18T02:58:31;96999.91;;;19.66;65.00
54994;BME280;40891;47.242;8.648;2022-07-18T03:00:57;97009.88;;;19.62;65.12
54994;BME280;40891;47.242;8.648;2022-07-18T03:03:23;97011.16;;;19.61;65.37
54994;BME280;40891;47.242;8.648;2022-07-18T03:05:48;97011.88;;;19.56;65.29
54994;BME280;40891;47.242;8.648;2022-07-18T03:08:14;97009.69;;;19.45;65.42
54994;BME280;40891;47.242;8.648;2022-07-18T03:10:39;97009.75;;;19.51;65.59
54994;BME280;40891;47.242;8.648;2022-07-18T03:13:04;97009.53;;;19.54;65.02
54994;BME280;40891;47.242;8.648;2022-07-18T03:15:30;97016.03;;;19.40;65.68
54994;BME280;40891;47.242;8.648;2022-07-18T03:17:56;97013.94;;;19.35;66.52
54994;BME280;40891;47.242;8.648;2022-07-18T03:20:21;97017.59;;;19.41;65.97
54994;BME280;40891;47.242;8.648;2022-07-18T03:22:47;97023.03;;;19.45;65.28
54994;BME280;40891;47.242;8.648;2022-07-18T03:25:12;97010.47;;;19.46;65.39
54994;BME280;40891;47.242;8.648;2022-07-18T03:27:37;97018.94;;;19.46;65.75
54994;BME280;40891;47.242;8.648;2022-07-18T03:30:03;97017.41;;;19.45;65.82
54994;BME280;40891;47.242;8.648;2022-07-18T03:32:28;97021.34;;;19.33;66.09
54994;BME280;40891;47.242;8.648;2022-07-18T03:34:54;97015.13;;;19.29;66.23
54994;BME280;40891;47.242;8.648;2022-07-18T03:37:19;97011.81;;;19.30;66.57
54994;BME280;40891;47.242;8.648;2022-07-18T03:39:44;97015.69;;;19.33;66.49
54994;BME280;40891;47.242;8.648;2022-07-18T03:42:10;97011.03;;;19.30;66.48
54994;BME280;40891;47.242;8.648;2022-07-18T03:44:35;97016.59;;;19.24;67.00
54994;BME280;40891;47.242;8.648;2022-07-18T03:47:00;97020.28;;;19.30;67.11
54994;BME280;40891;47.242;8.648;2022-07-18T03:49:26;97022.31;;;19.30;66.92
54994;BME280;40891;47.242;8.648;2022-07-18T03:51:51;97019.09;;;19.37;66.69
54994;BME280;40891;47.242;8.648;2022-07-18T03:54:16;97021.03;;;19.31;66.00
54994;BME280;40891;47.242;8.648;2022-07-18T03:56:42;97017.31;;;19.19;67.85
54994;BME280;40891;47.242;8.648;2022-07-18T03:59:07;97027.25;;;19.15;66.85
54994;BME280;40891;47.242;8.648;2022-07-18T04:01:32;97023.97;;;19.16;66.71
54994;BME280;40891;47.242;8.648;2022-07-18T04:03:58;97026.16;;;19.07;66.88
54994;BME280;40891;47.242;8.648;2022-07-18T04:06:23;97035.84;;;19.06;67.21
54994;BME280;40891;47.242;8.648;2022-07-18T04:08:48;97028.97;;;19.07;67.78
54994;BME280;40891;47.242;8.648;2022-07-18T04:11:14;97026.34;;;19.03;67.35
54994;BME280;40891;47.242;8.648;2022-07-18T04:13:39;97028.47;;;19.08;68.21
54994;BME280;40891;47.242;8.648;2022-07-18T04:16:04;97039.03;;;19.13;67.51
54994;BME280;40891;47.242;8.648;2022-07-18T04:18:30;97044.94;;;19.15;67.34
54994;BME280;40891;47.242;8.648;2022-07-18T04:20:55;97045.31;;;19.23;66.90
54994;BME280;40891;47.242;8.648;2022-07-18T04:23:20;97040.03;;;19.30;66.98
54994;BME280;40891;47.242;8.648;2022-07-18T04:25:46;97041.66;;;19.37;66.90
54994;BME280;40891;47.242;8.648;2022-07-18T04:28:12;97045.88;;;19.47;66.68
54994;BME280;40891;47.242;8.648;2022-07-18T04:30:39;97044.88;;;19.50;66.37
54994;BME280;40891;47.242;8.648;2022-07-18T04:33:06;97048.31;;;19.59;66.34
54994;BME280;40891;47.242;8.648;2022-07-18T04:35:32;97041.97;;;19.64;66.05
54994;BME280;40891;47.242;8.648;2022-07-18T04:38:01;97048.44;;;19.71;66.66
54994;BME280;40891;47.242;8.648;2022-07-18T04:40:26;97046.72;;;19.79;66.51
54994;BME280;40891;47.242;8.648;2022-07-18T04:42:51;97038.66;;;19.92;65.81
54994;BME280;40891;47.242;8.648;2022-07-18T04:45:17;97044.31;;;19.97;66.12
54994;BME280;40891;47.242;8.648;2022-07-18T04:47:46;97036.25;;;20.10;65.68
54994;BME280;40891;47.242;8.648;2022-07-18T04:50:11;97036.84;;;20.20;66.03
54994;BME280;40891;47.242;8.648;2022-07-18T04:52:47;97051.06;;;20.31;66.44
54994;BME280;40891;47.242;8.648;2022-07-18T04:55:14;97051.44;;;20.44;66.31
54994;BME280;40891;47.242;8.648;2022-07-18T04:57:40;97033.53;;;20.53;66.13
54994;BME280;40891;47.242;8.648;2022-07-18T05:00:12;97048.75;;;20.61;65.93
54994;BME280;40891;47.242;8.648;2022-07-18T05:02:43;97034.31;;;20.59;64.24
54994;BME280;40891;47.242;8.648;2022-07-18T05:05:10;97029.75;;;20.67;63.55
54994;BME280;40891;47.242;8.648;2022-07-18T05:07:37;97035.94;;;20.71;64.12
54994;BME280;40891;47.242;8.648;2022-07-18T05:10:03;97030.84;;;20.75;63.92
54994;BME280;40891;47.242;8.648;2022-07-18T05:12:33;97026.53;;;20.85;63.66
54994;BME280;40891;47.242;8.648;2022-07-18T05:14:58;97026.78;;;20.87;63.42
54994;BME280;40891;47.242;8.648;2022-07-18T05:17:23;97029.44;;;20.96;62.83
54994;BME280;40891;47.242;8.648;2022-07-18T05:19:49;97027.88;;;20.95;62.86
54994;BME280;40891;47.242;8.648;2022-07-18T05:22:14;97033.81;;;21.02;63.91
54994;BME280;40891;47.242;8.648;2022-07-18T05:24:39;97026.69;;;21.07;62.93
54994;BME280;40891;47.242;8.648;2022-07-18T05:27:05;97017.94;;;21.11;62.72
54994;BME280;40891;47.242;8.648;2022-07-18T05:29:30;97025.94;;;21.12;62.69
54994;BME280;40891;47.242;8.648;2022-07-18T05:31:56;97034.19;;;21.21;62.54
54994;BME280;40891;47.242;8.648;2022-07-18T05:34:21;97022.91;;;21.32;63.34
54994;BME280;40891;47.242;8.648;2022-07-18T05:36:46;97021.94;;;21.46;62.60
54994;BME280;40891;47.242;8.648;2022-07-18T05:39:11;97021.44;;;21.48;62.69
54994;BME280;40891;47.242;8.648;2022-07-18T05:41:37;97016.06;;;21.55;62.07
54994;BME280;40891;47.242;8.648;2022-07-18T05:44:02;97024.25;;;21.53;60.74
54994;BME280;40891;47.242;8.648;2022-07-18T05:46:28;97029.66;;;21.51;60.21
54994;BME280;40891;47.242;8.648;2022-07-18T05:48:53;97028.91;;;21.56;59.18
54994;BME280;40891;47.242;8.648;2022-07-18T05:51:19;97025.78;;;21.49;59.14
54994;BME280;40891;47.242;8.648;2022-07-18T05:53:44;97020.41;;;21.56;59.39
54994;BME280;40891;47.242;8.648;2022-07-18T05:56:10;97027.88;;;21.65;60.34
54994;BME280;40891;47.242;8.648;2022-07-18T05:58:35;97025.09;;;21.70;60.02
54994;BME280;40891;47.242;8.648;2022-07-18T06:01:00;97020.72;;;21.69;59.85
54994;BME280;40891;47.242;8.648;2022-07-18T06:03:26;97015.84;;;21.76;59.73
54994;BME280;40891;47.242;8.648;2022-07-18T06:05:51;97005.78;;;21.75;59.71
54994;BME280;40891;47.242;8.648;2022-07-18T06:08:17;97016.88;;;21.84;60.34
54994;BME280;40891;47.242;8.648;2022-07-18T06:10:42;97011.75;;;21.88;59.52
54994;BME280;40891;47.242;8.648;2022-07-18T06:13:08;97008.94;;;21.99;60.07
54994;BME280;40891;47.242;8.648;2022-07-18T06:15:33;97008.16;;;22.04;62.50
54994;BME280;40891;47.242;8.648;2022-07-18T06:17:58;97011.00;;;22.09;62.46
54994;BME280;40891;47.242;8.648;2022-07-18T06:20:24;97009.72;;;22.10;62.04
54994;BME280;40891;47.242;8.648;2022-07-18T06:22:50;97007.13;;;22.18;63.00
54994;BME280;40891;47.242;8.648;2022-07-18T06:25:15;97006.13;;;22.10;62.02
54994;BME280;40891;47.242;8.648;2022-07-18T06:27:41;96998.63;;;22.12;62.97
54994;BME280;40891;47.242;8.648;2022-07-18T06:30:07;97008.16;;;22.15;62.73
54994;BME280;40891;47.242;8.648;2022-07-18T06:32:35;97003.53;;;22.28;63.45
54994;BME280;40891;47.242;8.648;2022-07-18T06:35:00;96997.34;;;22.41;63.41
54994;BME280;40891;47.242;8.648;2022-07-18T06:37:26;96989.59;;;22.42;62.61
54994;BME280;40891;47.242;8.648;2022-07-18T06:39:51;96990.09;;;22.51;63.63
54994;BME280;40891;47.242;8.648;2022-07-18T06:42:16;96980.53;;;22.60;62.67
54994;BME280;40891;47.242;8.648;2022-07-18T06:44:42;96987.56;;;22.64;61.99
54994;BME280;40891;47.242;8.648;2022-07-18T06:47:07;96979.28;;;22.66;62.04
54994;BME280;40891;47.242;8.648;2022-07-18T06:49:33;96980.81;;;22.56;62.23
54994;BME280;40891;47.242;8.648;2022-07-18T06:51:58;96981.06;;;22.69;62.45
54994;BME280;40891;47.242;8.648;2022-07-18T06:54:23;96981.34;;;22.71;62.19
54994;BME280;40891;47.242;8.648;2022-07-18T06:56:54;96984.97;;;22.66;62.57
54994;BME280;40891;47.242;8.648;2022-07-18T06:59:20;96985.16;;;22.85;62.43
54994;BME280;40891;47.242;8.648;2022-07-18T07:01:45;96985.94;;;22.85;62.20
54994;BME280;40891;47.242;8.648;2022-07-18T07:04:11;96983.06;;;23.02;62.46
54994;BME280;40891;47.242;8.648;2022-07-18T07:06:36;96987.66;;;23.05;62.21
54994;BME280;40891;47.242;8.648;2022-07-18T07:09:03;96986.09;;;23.15;62.20
54994;BME280;40891;47.242;8.648;2022-07-18T07:11:29;96988.66;;;23.19;62.88
54994;BME280;40891;47.242;8.648;2022-07-18T07:13:54;96988.94;;;23.10;62.18
54994;BME280;40891;47.242;8.648;2022-07-18T07:16:19;96988.94;;;23.15;61.87
54994;BME280;40891;47.242;8.648;2022-07-18T07:18:45;96986.38;;;23.12;62.08
54994;BME280;40891;47.242;8.648;2022-07-18T07:21:10;96984.50;;;23.25;62.23
54994;BME280;40891;47.242;8.648;2022-07-18T07:23:35;96985.78;;;23.24;62.12
54994;BME280;40891;47.242;8.648;2022-07-18T07:26:01;96968.44;;;23.33;62.42
54994;BME280;40891;47.242;8.648;2022-07-18T07:28:26;96982.94;;;23.35;61.99
54994;BME280;40891;47.242;8.648;2022-07-18T07:30:51;96979.50;;;23.48;61.18
54994;BME280;40891;47.242;8.648;2022-07-18T07:33:17;96974.28;;;23.57;59.55
54994;BME280;40891;47.242;8.648;2022-07-18T07:35:42;96975.22;;;23.71;60.11
54994;BME280;40891;47.242;8.648;2022-07-18T07:38:08;96973.91;;;23.78;58.61
54994;BME280;40891;47.242;8.648;2022-07-18T07:40:34;96981.63;;;23.83;58.02
54994;BME280;40891;47.242;8.648;2022-07-18T07:43:10;96974.34;;;23.87;59.12
54994;BME280;40891;47.242;8.648;2022-07-18T07:45:36;96969.88;;;23.97;58.06
54994;BME280;40891;47.242;8.648;2022-07-18T07:48:03;96973.69;;;24.05;57.34
54994;BME280;40891;47.242;8.648;2022-07-18T07:50:28;96971.38;;;24.04;59.09
54994;BME280;40891;47.242;8.648;2022-07-18T07:52:55;96962.25;;;24.16;57.72
54994;BME280;40891;47.242;8.648;2022-07-18T07:55:20;96960.34;;;24.30;54.33
54994;BME280;40891;47.242;8.648;2022-07-18T07:57:46;96965.47;;;24.31;57.28
54994;BME280;40891;47.242;8.648;2022-07-18T08:00:11;96970.47;;;24.50;58.65
54994;BME280;40891;47.242;8.648;2022-07-18T08:02:37;96978.13;;;24.60;56.82
54994;BME280;40891;47.242;8.648;2022-07-18T08:05:03;96982.66;;;24.74;55.98
54994;BME280;40891;47.242;8.648;2022-07-18T08:07:28;96982.78;;;24.87;55.53
54994;BME280;40891;47.242;8.648;2022-07-18T08:09:54;96975.97;;;24.96;52.61
54994;BME280;40891;47.242;8.648;2022-07-18T08:12:19;96977.81;;;24.93;53.61
54994;BME280;40891;47.242;8.648;2022-07-18T08:14:44;96976.28;;;25.11;52.74
54994;BME280;40891;47.242;8.648;2022-07-18T08:17:10;96975.91;;;25.20;53.94
54994;BME280;40891;47.242;8.648;2022-07-18T08:19:35;96973.47;;;25.30;53.29
54994;BME280;40891;47.242;8.648;2022-07-18T08:22:00;96967.81;;;25.48;52.64
54994;BME280;40891;47.242;8.648;2022-07-18T08:24:26;96971.13;;;25.52;52.42
54994;BME280;40891;47.242;8.648;2022-07-18T08:26:51;96963.97;;;25.64;52.65
54994;BME280;40891;47.242;8.648;2022-07-18T08:29:16;96971.66;;;25.70;52.61
54994;BME280;40891;47.242;8.648;2022-07-18T08:31:42;96965.81;;;25.62;50.20
54994;BME280;40891;47.242;8.648;2022-07-18T08:34:07;96967.56;;;25.46;50.18
54994;BME280;40891;47.242;8.648;2022-07-18T08:36:33;96963.25;;;25.58;52.48
54994;BME280;40891;47.242;8.648;2022-07-18T08:38:58;96968.72;;;25.56;50.57
54994;BME280;40891;47.242;8.648;2022-07-18T08:41:24;96953.66;;;25.61;52.01
54994;BME280;40891;47.242;8.648;2022-07-18T08:43:49;96962.31;;;25.88;51.44
54994;BME280;40891;47.242;8.648;2022-07-18T08:46:18;96947.03;;;26.04;51.87
54994;BME280;40891;47.242;8.648;2022-07-18T08:48:46;96955.34;;;26.20;51.46
54994;BME280;40891;47.242;8.648;2022-07-18T08:51:11;96955.03;;;26.37;49.40
54994;BME280;40891;47.242;8.648;2022-07-18T08:53:37;96950.91;;;26.51;50.29
54994;BME280;40891;47.242;8.648;2022-07-18T08:56:03;96948.28;;;26.66;49.54
54994;BME280;40891;47.242;8.648;2022-07-18T08:58:29;96951.59;;;26.70;51.30
54994;BME280;40891;47.242;8.648;2022-07-18T09:00:54;96950.31;;;26.84;49.45
54994;BME280;40891;47.242;8.648;2022-07-18T09:03:20;96943.06;;;26.96;47.78
54994;BME280;40891;47.242;8.648;2022-07-18T09:05:45;96948.44;;;27.00;48.16
54994;BME280;40891;47.242;8.648;2022-07-18T09:08:15;96949.19;;;27.00;47.75
54994;BME280;40891;47.242;8.648;2022-07-18T09:10:54;96954.69;;;27.12;47.78
54994;BME280;40891;47.242;8.648;2022-07-18T09:13:25;96942.94;;;27.15;48.93
54994;BME280;40891;47.242;8.648;2022-07-18T09:18:27;96948.84;;;27.30;50.87
54994;BME280;40891;47.242;8.648;2022-07-18T09:23:41;96949.56;;;27.57;45.53
54994;BME280;40891;47.242;8.648;2022-07-18T09:26:08;96949.56;;;27.70;46.93
54994;BME280;40891;47.242;8.648;2022-07-18T09:28:46;96939.47;;;27.90;44.17
54994;BME280;40891;47.242;8.648;2022-07-18T09:31:19;96942.63;;;27.99;47.10
54994;BME280;40891;47.242;8.648;2022-07-18T09:33:55;96940.28;;;28.11;46.81
54994;BME280;40891;47.242;8.648;2022-07-18T09:36:21;96934.56;;;28.31;46.03
54994;BME280;40891;47.242;8.648;2022-07-18T09:38:46;96942.31;;;28.44;46.96
54994;BME280;40891;47.242;8.648;2022-07-18T09:41:11;96938.78;;;28.59;45.82
54994;BME280;40891;47.242;8.648;2022-07-18T09:43:37;96936.25;;;28.76;45.23
54994;BME280;40891;47.242;8.648;2022-07-18T09:46:04;96927.53;;;28.81;43.15
54994;BME280;40891;47.242;8.648;2022-07-18T09:48:30;96926.56;;;28.79;46.81
54994;BME280;40891;47.242;8.648;2022-07-18T09:51:00;96924.00;;;29.04;44.90
54994;BME280;40891;47.242;8.648;2022-07-18T09:55:53;96915.28;;;29.45;42.09
54994;BME280;40891;47.242;8.648;2022-07-18T09:58:21;96916.47;;;29.57;42.39
54994;BME280;40891;47.242;8.648;2022-07-18T10:00:48;96927.56;;;29.68;40.41
54994;BME280;40891;47.242;8.648;2022-07-18T10:03:14;96928.81;;;30.03;40.47
54994;BME280;40891;47.242;8.648;2022-07-18T10:05:41;96919.47;;;30.17;40.43
54994;BME280;40891;47.242;8.648;2022-07-18T10:08:12;96918.19;;;30.34;41.17
54994;BME280;40891;47.242;8.648;2022-07-18T10:10:39;96914.53;;;30.41;40.17
54994;BME280;40891;47.242;8.648;2022-07-18T10:13:06;96916.63;;;30.55;37.90
54994;BME280;40891;47.242;8.648;2022-07-18T10:15:34;96918.56;;;30.68;39.80
54994;BME280;40891;47.242;8.648;2022-07-18T10:18:01;96914.16;;;30.89;40.33
54994;BME280;40891;47.242;8.648;2022-07-18T10:20:31;96919.31;;;30.99;40.36
54994;BME280;40891;47.242;8.648;2022-07-18T10:23:01;96915.41;;;31.19;40.83
54994;BME280;40891;47.242;8.648;2022-07-18T10:25:27;96912.97;;;31.63;39.50
54994;BME280;40891;47.242;8.648;2022-07-18T10:30:33;96904.31;;;31.95;36.99
54994;BME280;40891;47.242;8.648;2022-07-18T10:33:00;96903.66;;;32.11;37.11
54994;BME280;40891;47.242;8.648;2022-07-18T10:38:25;96906.78;;;32.31;35.64
54994;BME280;40891;47.242;8.648;2022-07-18T10:41:05;96901.41;;;32.59;36.44
54994;BME280;40891;47.242;8.648;2022-07-18T10:43:33;96903.63;;;32.44;36.31
54994;BME280;40891;47.242;8.648;2022-07-18T10:45:59;96898.59;;;33.11;36.37
54994;BME280;40891;47.242;8.648;2022-07-18T10:51:10;96891.50;;;33.73;34.38
54994;BME280;40891;47.242;8.648;2022-07-18T10:54:06;96897.13;;;33.71;34.73
54994;BME280;40891;47.242;8.648;2022-07-18T10:59:16;96890.28;;;34.29;32.66
54994;BME280;40891;47.242;8.648;2022-07-18T11:01:49;96891.66;;;34.64;31.20
54994;BME280;40891;47.242;8.648;2022-07-18T11:04:26;96888.81;;;34.93;28.79
54994;BME280;40891;47.242;8.648;2022-07-18T11:07:06;96890.41;;;35.13;30.27
54994;BME280;40891;47.242;8.648;2022-07-18T11:09:43;96884.94;;;35.56;30.89
54994;BME280;40891;47.242;8.648;2022-07-18T11:12:21;96875.03;;;35.68;30.41
54994;BME280;40891;47.242;8.648;2022-07-18T11:15:08;96880.97;;;35.61;32.45
54994;BME280;40891;47.242;8.648;2022-07-18T11:20:42;96882.47;;;36.31;28.93
54994;BME280;40891;47.242;8.648;2022-07-18T11:23:25;96880.44;;;36.02;31.02
54994;BME280;40891;47.242;8.648;2022-07-18T11:25:53;96874.81;;;35.85;28.09
54994;BME280;40891;47.242;8.648;2022-07-18T11:28:22;96873.88;;;35.92;28.66
54994;BME280;40891;47.242;8.648;2022-07-18T11:31:06;96882.69;;;36.54;29.13
54994;BME280;40891;47.242;8.648;2022-07-18T11:33:34;96877.19;;;36.58;30.85
54994;BME280;40891;47.242;8.648;2022-07-18T11:36:09;96870.03;;;36.49;29.82
54994;BME280;40891;47.242;8.648;2022-07-18T11:38:38;96873.03;;;36.82;28.53
54994;BME280;40891;47.242;8.648;2022-07-18T11:41:04;96867.22;;;37.13;26.39
54994;BME280;40891;47.242;8.648;2022-07-18T11:43:30;96859.22;;;37.56;25.67
54994;BME280;40891;47.242;8.648;2022-07-18T11:46:15;96858.34;;;37.86;24.16
54994;BME280;40891;47.242;8.648;2022-07-18T11:48:44;96860.34;;;37.83;21.43
54994;BME280;40891;47.242;8.648;2022-07-18T11:51:52;96859.59;;;37.83;25.03
54994;BME280;40891;47.242;8.648;2022-07-18T11:53:59;96855.81;;;37.47;29.99
54994;BME280;40891;47.242;8.648;2022-07-18T11:56:24;96848.88;;;37.97;27.13
54994;BME280;40891;47.242;8.648;2022-07-18T11:58:50;96849.94;;;38.36;24.99
54994;BME280;40891;47.242;8.648;2022-07-18T12:01:17;96843.63;;;38.74;22.94
54994;BME280;40891;47.242;8.648;2022-07-18T12:03:51;96837.22;;;39.13;23.27
54994;BME280;40891;47.242;8.648;2022-07-18T12:06:21;96838.13;;;39.77;21.78
54994;BME280;40891;47.242;8.648;2022-07-18T12:08:52;96842.78;;;39.82;21.50
54994;BME280;40891;47.242;8.648;2022-07-18T12:11:26;96843.22;;;40.29;19.37
54994;BME280;40891;47.242;8.648;2022-07-18T12:14:20;96832.31;;;41.11;19.43
54994;BME280;40891;47.242;8.648;2022-07-18T12:16:57;96830.94;;;40.99;17.53
54994;BME280;40891;47.242;8.648;2022-07-18T12:19:33;96826.56;;;42.30;17.38
54994;BME280;40891;47.242;8.648;2022-07-18T12:22:07;96822.63;;;43.21;17.38
54994;BME280;40891;47.242;8.648;2022-07-18T12:27:14;96822.75;;;44.49;15.59
54994;BME280;40891;47.242;8.648;2022-07-18T12:30:04;96823.19;;;44.41;14.08
54994;BME280;40891;47.242;8.648;2022-07-18T12:32:36;96826.72;;;45.16;13.62
54994;BME280;40891;47.242;8.648;2022-07-18T12:35:24;96817.28;;;45.61;13.67
54994;BME280;40891;47.242;8.648;2022-07-18T12:38:02;96816.19;;;46.41;12.42
54994;BME280;40891;47.242;8.648;2022-07-18T12:43:13;96817.78;;;45.56;12.30
54994;BME280;40891;47.242;8.648;2022-07-18T12:45:40;96817.16;;;46.74;12.58
54994;BME280;40891;47.242;8.648;2022-07-18T12:48:08;96821.69;;;47.88;12.64
54994;BME280;40891;47.242;8.648;2022-07-18T12:50:34;96813.97;;;47.74;11.25
54994;BME280;40891;47.242;8.648;2022-07-18T12:53:00;96811.00;;;47.45;11.20
54994;BME280;40891;47.242;8.648;2022-07-18T12:55:26;96809.63;;;48.07;11.76
54994;BME280;40891;47.242;8.648;2022-07-18T12:57:52;96809.16;;;47.04;10.69
54994;BME280;40891;47.242;8.648;2022-07-18T13:00:17;96804.28;;;47.70;10.54
54994;BME280;40891;47.242;8.648;2022-07-18T13:02:44;96795.88;;;48.87;10.82
54994;BME280;40891;47.242;8.648;2022-07-18T13:05:09;96795.91;;;49.67;10.38
54994;BME280;40891;47.242;8.648;2022-07-18T13:07:35;96786.47;;;50.82;9.71
54994;BME280;40891;47.242;8.648;2022-07-18T13:10:00;96799.31;;;51.77;8.41
54994;BME280;40891;47.242;8.648;2022-07-18T13:12:25;96788.09;;;51.63;9.17
54994;BME280;40891;47.242;8.648;2022-07-18T13:14:51;96787.28;;;50.89;11.27
54994;BME280;40891;47.242;8.648;2022-07-18T13:17:16;96781.63;;;51.13;9.34
54994;BME280;40891;47.242;8.648;2022-07-18T13:19:41;96780.19;;;52.02;9.84
54994;BME280;40891;47.242;8.648;2022-07-18T13:22:07;96782.81;;;49.82;9.64
54994;BME280;40891;47.242;8.648;2022-07-18T13:24:32;96778.59;;;50.45;8.89
54994;BME280;40891;47.242;8.648;2022-07-18T13:26:57;96778.19;;;50.73;8.53